createdAt,value
2022-08-05T00:02:07.391Z,97652.44
2022-08-05T00:04:38.205Z,97654.31
2022-08-05T00:07:27.075Z,97651.47
2022-08-05T00:10:03.066Z,97652.22
2022-08-05T00:12:33.326Z,97656.66
2022-08-05T00:15:56.310Z,97653.19
2022-08-05T00:18:08.935Z,97649.88
2022-08-05T00:20:49.910Z,97651.38
2022-08-05T00:23:44.443Z,97650.47
2022-08-05T00:26:14.198Z,97644.75
2022-08-05T00:28:47.234Z,97649.41
2022-08-05T00:31:41.436Z,97651.59
2022-08-05T00:34:54.150Z,97652.28
2022-08-05T00:37:13.177Z,97656.22
2022-08-05T00:39:57.869Z,97657.41
2022-08-05T00:42:41.629Z,97660.63
2022-08-05T00:45:13.650Z,97655.47
2022-08-05T00:47:53.091Z,97656.94
2022-08-05T00:50:26.495Z,97655.53
2022-08-05T00:52:57.116Z,97661.78
2022-08-05T00:55:42.506Z,97658.38
2022-08-05T00:58:19.215Z,97661.16
2022-08-05T01:00:50.429Z,97657.94
2022-08-05T01:03:22.920Z,97670.22
2022-08-05T01:05:54.638Z,97673.59
2022-08-05T01:08:42.581Z,97679.78
2022-08-05T01:11:24.123Z,97687.41
2022-08-05T01:14:27.891Z,97709.50
2022-08-05T01:17:13.618Z,97707.81
2022-08-05T01:20:00.962Z,97708.88
2022-08-05T01:22:49.923Z,97713.53
2022-08-05T01:26:03.601Z,97722.31
2022-08-05T01:28:46.601Z,97717.56
2022-08-05T01:31:29.234Z,97731.97
2022-08-05T01:34:11.712Z,97716.81
2022-08-05T01:36:49.525Z,97725.03
2022-08-05T01:39:36.096Z,97725.91
2022-08-05T01:42:17.534Z,97726.97
2022-08-05T01:44:53.952Z,97730.13
2022-08-05T01:47:38.675Z,97735.31
2022-08-05T01:50:17.375Z,97743.63
2022-08-05T01:52:51.601Z,97738.44
2022-08-05T01:55:26.429Z,97748.06
2022-08-05T01:58:14.597Z,97766.28
2022-08-05T02:00:53.865Z,97757.22
2022-08-05T02:03:34.276Z,97758.69
2022-08-05T02:06:33.223Z,97760.47
2022-08-05T02:08:58.935Z,97752.28
2022-08-05T02:11:35.606Z,97752.03
2022-08-05T02:14:17.974Z,97753.00
2022-08-05T02:16:55.333Z,97755.28
2022-08-05T02:19:35.971Z,97752.13
2022-08-05T02:22:25.597Z,97747.47
2022-08-05T02:25:05.380Z,97749.97
2022-08-05T02:27:59.657Z,97753.44
2022-08-05T02:30:51.859Z,97765.94
2022-08-05T02:33:36.125Z,97767.22
2022-08-05T02:36:15.354Z,97766.69
2022-08-05T02:38:53.221Z,97763.63
2022-08-05T02:41:28.447Z,97770.50
2022-08-05T02:44:13.109Z,97768.84
2022-08-05T02:46:59.678Z,97772.69
2022-08-05T02:49:40.432Z,97767.97
2022-08-05T02:52:29.678Z,97771.84
2022-08-05T02:55:05.524Z,97775.31
2022-08-05T02:58:10.281Z,97772.75
2022-08-05T03:00:34.256Z,97777.19
2022-08-05T03:03:10.297Z,97781.06
2022-08-05T03:06:53.821Z,97779.16
2022-08-05T03:08:35.754Z,97775.88
2022-08-05T03:11:55.561Z,97774.88
2022-08-05T03:14:04.078Z,97786.41
2022-08-05T03:16:35.659Z,97779.78
2022-08-05T03:19:12.769Z,97784.75
2022-08-05T03:21:50.143Z,97791.28
2022-08-05T03:24:27.562Z,97796.25
2022-08-05T03:27:01.355Z,97792.69
2022-08-05T03:29:45.837Z,97800.75
2022-08-05T03:32:31.053Z,97792.53
2022-08-05T03:35:04.419Z,97797.28
2022-08-05T03:37:46.219Z,97792.69
2022-08-05T03:40:24.580Z,97803.81
2022-08-05T03:43:59.257Z,97805.84
2022-08-05T03:45:57.416Z,97801.63
2022-08-05T03:48:29.735Z,97806.50
2022-08-05T03:52:38.009Z,97809.97
2022-08-05T03:56:01.577Z,97814.72
2022-08-05T03:57:16.681Z,97808.81
2022-08-05T03:59:55.560Z,97811.97
2022-08-05T04:02:39.066Z,97802.69
2022-08-05T04:05:23.021Z,97797.63
2022-08-05T04:07:58.212Z,97795.09
2022-08-05T04:10:37.365Z,97781.34
2022-08-05T04:13:09.482Z,97790.97
2022-08-05T04:15:39.712Z,97796.16
2022-08-05T04:18:30.146Z,97798.22
2022-08-05T04:21:01.599Z,97821.56
2022-08-05T04:23:57.125Z,97822.06
2022-08-05T04:26:26.010Z,97832.41
2022-08-05T04:29:07.269Z,97838.56
2022-08-05T04:31:38.496Z,97841.63
2022-08-05T04:34:31.668Z,97839.00
2022-08-05T04:36:59.460Z,97841.03
2022-08-05T04:39:31.101Z,97851.63
2022-08-05T04:42:04.902Z,97858.63
2022-08-05T04:44:34.969Z,97870.66
2022-08-05T04:47:09.311Z,97878.50
2022-08-05T04:50:02.829Z,97886.09
2022-08-05T04:52:34.046Z,97888.44
2022-08-05T04:55:13.896Z,97893.59
2022-08-05T04:57:54.053Z,97901.56
2022-08-05T05:00:24.473Z,97908.03
2022-08-05T05:02:54.846Z,97916.81
2022-08-05T05:05:28.715Z,97922.81
2022-08-05T05:08:03.468Z,97929.88
2022-08-05T05:10:36.346Z,97934.56
2022-08-05T05:13:09.213Z,97945.84
2022-08-05T05:15:56.952Z,97974.69
2022-08-05T05:18:33.311Z,98004.31
2022-08-05T05:21:05.534Z,98003.56
2022-08-05T05:23:39.257Z,98002.50
2022-08-05T05:26:28.359Z,98001.94
2022-08-05T05:29:14.264Z,97993.44
2022-08-05T05:31:46.345Z,97997.81
2022-08-05T05:34:20.011Z,98002.22
2022-08-05T05:36:54.202Z,98015.91
2022-08-05T05:39:24.295Z,98023.63
2022-08-05T05:42:01.627Z,98021.38
2022-08-05T05:44:36.507Z,98029.50
2022-08-05T05:47:21.223Z,98037.25
2022-08-05T05:49:56.507Z,98044.88
2022-08-05T05:52:28.731Z,98054.47
2022-08-05T05:55:07.465Z,98066.13
2022-08-05T05:57:52.539Z,98064.47
2022-08-05T06:00:27.836Z,98073.75
2022-08-05T06:03:39.786Z,98070.41
2022-08-05T06:05:55.561Z,98065.66
2022-08-05T06:08:32.611Z,98064.19
2022-08-05T06:11:03.183Z,98073.41
2022-08-05T06:13:40.797Z,98073.47
2022-08-05T06:16:29.446Z,98074.31
2022-08-05T06:19:05.954Z,98065.94
2022-08-05T06:21:42.306Z,98059.31
2022-08-05T06:24:25.628Z,98052.75
2022-08-05T06:26:57.347Z,98055.63
2022-08-05T06:29:46.828Z,98060.63
2022-08-05T06:32:25.779Z,98067.38
2022-08-05T06:34:57.789Z,98068.06
2022-08-05T06:37:57.342Z,98065.66
2022-08-05T06:40:21.205Z,98067.50
2022-08-05T06:42:52.980Z,98063.72
2022-08-05T06:45:45.070Z,98063.84
2022-08-05T06:48:52.589Z,98052.91
2022-08-05T06:51:09.613Z,98040.94
2022-08-05T06:53:41.436Z,98049.59
2022-08-05T06:56:26.003Z,98057.91
2022-08-05T06:58:57.224Z,98050.25
2022-08-05T07:01:32.443Z,98047.31
2022-08-05T07:04:05.919Z,98050.81
2022-08-05T07:06:35.916Z,98049.06
2022-08-05T07:09:06.237Z,98053.41
2022-08-05T07:11:39.881Z,98053.94
2022-08-05T07:14:29.782Z,98064.59
2022-08-05T07:17:58.679Z,98069.03
2022-08-05T07:22:47.871Z,98068.44
2022-08-05T07:25:23.909Z,98079.88
2022-08-05T07:28:11.706Z,98073.34
2022-08-05T07:30:50.295Z,98070.94
2022-08-05T07:33:37.090Z,98084.28
2022-08-05T07:36:20.557Z,98092.25
2022-08-05T07:38:54.710Z,98093.91
2022-08-05T07:42:14.418Z,98096.06
2022-08-05T07:44:19.427Z,98080.94
2022-08-05T07:46:51.007Z,98090.06
2022-08-05T07:49:21.994Z,98090.03
2022-08-05T07:51:55.199Z,98093.25
2022-08-05T07:54:30.960Z,98098.28
2022-08-05T07:57:17.996Z,98107.63
2022-08-05T07:59:54.608Z,98104.19
2022-08-05T08:02:31.261Z,98106.06
2022-08-05T08:05:19.169Z,98102.59
2022-08-05T08:08:00.274Z,98101.59
2022-08-05T08:10:31.301Z,98098.72
2022-08-05T08:13:02.984Z,98112.56
2022-08-05T08:16:33.421Z,98099.97
2022-08-05T08:18:25.185Z,98103.97
2022-08-05T08:21:02.098Z,98098.41
2022-08-05T08:24:02.489Z,98107.84
2022-08-05T08:26:26.811Z,98097.75
2022-08-05T08:29:21.912Z,98093.34
2022-08-05T08:31:52.629Z,98096.31
2022-08-05T08:34:30.625Z,98103.34
2022-08-05T08:37:05.155Z,98105.31
2022-08-05T08:39:38.484Z,98105.13
2022-08-05T08:42:33.936Z,98097.63
2022-08-05T08:45:24.265Z,98102.38
2022-08-05T08:48:06.981Z,98100.56
2022-08-05T08:51:03.886Z,98098.75
2022-08-05T08:53:45.041Z,98075.59
2022-08-05T08:56:21.068Z,98076.25
2022-08-05T08:58:52.669Z,98074.41
2022-08-05T09:01:23.061Z,98069.66
2022-08-05T09:03:58.394Z,98064.75
2022-08-05T09:06:31.859Z,98067.88
2022-08-05T09:09:04.291Z,98073.00
2022-08-05T09:11:51.884Z,98065.78
2022-08-05T09:14:56.768Z,98061.91
2022-08-05T09:17:16.059Z,98057.28
2022-08-05T09:20:08.628Z,98054.13
2022-08-05T09:23:18.794Z,98050.78
2022-08-05T09:26:03.878Z,98049.72
2022-08-05T09:28:43.362Z,98034.94
2022-08-05T09:31:44.251Z,98031.19
2022-08-05T09:34:11.759Z,98034.91
2022-08-05T09:36:56.052Z,98030.16
2022-08-05T09:39:41.978Z,98027.84
2022-08-05T09:42:23.105Z,98034.91
2022-08-05T09:45:17.456Z,98022.63
2022-08-05T09:47:55.896Z,98018.47
2022-08-05T09:50:44.890Z,98019.19
2022-08-05T09:53:22.840Z,98016.94
2022-08-05T09:56:03.828Z,98018.00
2022-08-05T09:58:35.153Z,98015.41
2022-08-05T10:01:15.133Z,98013.16
2022-08-05T10:04:00.418Z,98013.09
2022-08-05T10:06:31.073Z,98011.47
2022-08-05T10:09:25.069Z,98010.78
2022-08-05T10:12:30.969Z,98009.31
2022-08-05T10:15:20.559Z,98010.41
2022-08-05T10:18:12.776Z,98000.97
2022-08-05T10:20:47.824Z,98010.88
2022-08-05T10:23:55.938Z,98012.00
2022-08-05T10:26:15.236Z,98016.94
2022-08-05T10:28:46.761Z,98011.50
2022-08-05T10:32:47.911Z,98008.16
2022-08-05T10:34:12.930Z,98003.25
2022-08-05T10:36:44.944Z,98000.56
2022-08-05T10:39:24.530Z,97997.38
2022-08-05T10:42:06.179Z,97998.00
2022-08-05T10:44:39.564Z,97998.88
2022-08-05T10:47:25.913Z,97996.75
2022-08-05T10:50:31.722Z,97997.88
2022-08-05T10:53:03.159Z,97989.41
2022-08-05T10:56:03.248Z,97996.78
2022-08-05T10:58:35.855Z,97994.19
2022-08-05T11:01:15.126Z,97991.84
2022-08-05T11:04:07.855Z,97988.69
2022-08-05T11:07:12.010Z,97976.16
2022-08-05T11:09:49.549Z,97983.00
2022-08-05T11:12:50.852Z,97982.53
2022-08-05T11:16:00.011Z,97989.53
2022-08-05T11:18:34.071Z,97995.28
2022-08-05T11:21:11.722Z,98003.19
2022-08-05T11:24:04.964Z,97993.59
2022-08-05T11:26:49.596Z,98001.09
2022-08-05T11:29:40.827Z,98002.63
2022-08-05T11:32:27.646Z,97986.94
2022-08-05T11:34:58.919Z,97997.91
2022-08-05T11:38:30.851Z,97994.97
2022-08-05T11:41:34.816Z,97994.44
2022-08-05T11:44:05.474Z,97985.88
2022-08-05T11:47:09.509Z,97999.38
2022-08-05T11:49:34.042Z,97998.22
2022-08-05T11:52:11.562Z,97990.44
2022-08-05T11:54:43.597Z,97991.47
2022-08-05T11:57:25.660Z,97987.44
2022-08-05T11:59:58.119Z,97991.75
2022-08-05T12:02:33.703Z,97983.22
2022-08-05T12:05:18.292Z,97984.13
2022-08-05T12:08:03.757Z,97983.84
2022-08-05T12:10:46.120Z,97987.03
2022-08-05T12:13:47.775Z,97967.06
2022-08-05T12:16:20.395Z,97972.31
2022-08-05T12:18:57.891Z,97968.03
2022-08-05T12:21:32.332Z,97973.09
2022-08-05T12:24:06.979Z,97966.78
2022-08-05T12:26:39.131Z,97970.22
2022-08-05T12:29:16.165Z,97961.88
2022-08-05T12:31:53.679Z,97963.09
2022-08-05T12:34:31.581Z,97962.25
2022-08-05T12:37:10.815Z,97955.53
2022-08-05T12:39:48.761Z,97946.41
2022-08-05T12:42:25.400Z,97950.16
2022-08-05T12:45:08.873Z,97946.94
2022-08-05T12:47:43.431Z,97953.53
2022-08-05T12:50:31.874Z,97942.66
2022-08-05T12:53:02.761Z,97947.84
2022-08-05T12:55:35.400Z,97944.28
2022-08-05T12:58:50.579Z,97945.94
2022-08-05T13:02:00.765Z,97934.44
2022-08-05T13:03:51.628Z,97934.03
2022-08-05T13:06:21.828Z,97929.78
2022-08-05T13:08:52.943Z,97931.84
2022-08-05T13:12:02.019Z,97928.91
2022-08-05T13:14:25.038Z,97921.78
2022-08-05T13:17:13.224Z,97926.38
2022-08-05T13:19:52.758Z,97916.91
2022-08-05T13:22:27.960Z,97926.59
2022-08-05T13:25:05.461Z,97923.97
2022-08-05T13:27:40.642Z,97920.88
2022-08-05T13:30:34.787Z,97916.88
2022-08-05T13:33:07.581Z,97906.50
2022-08-05T13:35:43.338Z,97901.00
2022-08-05T13:38:30.719Z,97903.88
2022-08-05T13:41:04.306Z,97901.53
2022-08-05T13:43:45.690Z,97899.22
2022-08-05T13:47:01.995Z,97893.41
2022-08-05T13:49:17.297Z,97883.69
2022-08-05T13:51:47.303Z,97886.63
2022-08-05T13:54:20.983Z,97885.97
2022-08-05T13:56:55.516Z,97885.56
2022-08-05T13:59:27.279Z,97876.94
2022-08-05T14:02:03.018Z,97872.25
2022-08-05T14:04:51.868Z,97875.72
2022-08-05T14:07:55.375Z,97868.47
2022-08-05T14:10:28.939Z,97873.03
2022-08-05T14:13:01.448Z,97870.63
2022-08-05T14:16:05.536Z,97859.88
2022-08-05T14:18:23.407Z,97864.00
2022-08-05T14:20:56.799Z,97868.91
2022-08-05T14:23:29.650Z,97869.50
2022-08-05T14:26:06.855Z,97853.25
2022-08-05T14:28:36.992Z,97863.78
2022-08-05T14:32:02.910Z,97865.81
2022-08-05T14:34:12.999Z,97863.75
2022-08-05T14:36:48.652Z,97871.31
2022-08-05T14:39:23.268Z,97863.56
2022-08-05T14:42:19.510Z,97867.25
2022-08-05T14:44:45.932Z,97858.47
2022-08-05T14:47:16.026Z,97868.34
2022-08-05T14:49:58.539Z,97883.81
2022-08-05T14:52:52.583Z,97879.06
2022-08-05T14:55:22.649Z,97872.97
2022-08-05T14:57:54.294Z,97873.47
2022-08-05T15:00:28.352Z,97875.97
2022-08-05T15:02:59.589Z,97875.88
2022-08-05T15:06:08.270Z,97874.97
2022-08-05T15:08:58.187Z,97870.72
2022-08-05T15:11:13.096Z,97891.66
2022-08-05T15:13:46.602Z,97907.66
2022-08-05T15:16:20.487Z,97920.75
2022-08-05T15:18:52.368Z,97923.91
2022-08-05T15:21:22.694Z,97923.69
2022-08-05T15:23:57.158Z,97906.91
2022-08-05T15:26:31.996Z,97887.84
2022-08-05T15:29:02.734Z,97887.13
2022-08-05T15:31:34.591Z,97902.38
2022-08-05T15:34:31.534Z,97905.28
2022-08-05T15:36:55.229Z,97911.22
2022-08-05T15:41:00.019Z,97920.63
2022-08-05T15:42:28.769Z,97943.91
2022-08-05T15:45:11.438Z,97949.91
2022-08-05T15:47:41.658Z,97950.69
2022-08-05T15:50:15.426Z,97950.50
2022-08-05T15:52:52.815Z,97944.91
2022-08-05T15:56:03.165Z,97941.84
2022-08-05T15:58:17.655Z,97939.72
2022-08-05T16:00:50.643Z,97926.41
2022-08-05T16:03:34.663Z,97918.69
2022-08-05T16:06:12.980Z,97925.72
2022-08-05T16:08:43.399Z,97923.69
2022-08-05T16:11:17.360Z,97935.97
2022-08-05T16:13:47.688Z,97931.38
2022-08-05T16:16:21.317Z,97926.19
2022-08-05T16:18:55.849Z,97924.88
2022-08-05T16:22:01.195Z,97932.66
2022-08-05T16:24:39.479Z,97947.75
2022-08-05T16:27:10.352Z,97963.84
2022-08-05T16:29:50.773Z,97969.03
2022-08-05T16:32:28.261Z,97973.56
2022-08-05T16:35:00.042Z,97980.09
2022-08-05T16:38:03.733Z,97984.06
2022-08-05T16:40:28.820Z,97990.19
2022-08-05T16:43:01.975Z,97989.19
2022-08-05T16:46:03.582Z,97985.50
2022-08-05T16:48:25.840Z,97998.72
2022-08-05T16:51:03.811Z,97986.94
2022-08-05T16:54:05.649Z,97985.19
2022-08-05T16:56:31.082Z,97983.75
2022-08-05T16:59:08.178Z,97992.91
2022-08-05T17:01:54.842Z,97999.03
2022-08-05T17:04:28.132Z,98002.72
2022-08-05T17:07:03.143Z,97998.56
2022-08-05T17:09:56.028Z,98002.38
2022-08-05T17:12:51.882Z,98008.38
2022-08-05T17:15:19.331Z,98006.53
2022-08-05T17:17:55.012Z,98013.47
2022-08-05T17:20:26.718Z,98007.78
2022-08-05T17:22:57.608Z,98006.00
2022-08-05T17:25:33.657Z,98010.13
2022-08-05T17:28:04.801Z,98024.13
2022-08-05T17:30:50.820Z,98023.84
2022-08-05T17:33:23.221Z,98043.47
2022-08-05T17:36:08.840Z,98033.03
2022-08-05T17:38:40.395Z,98032.53
2022-08-05T17:41:11.713Z,98033.78
2022-08-05T17:44:01.320Z,98041.03
2022-08-05T17:46:35.941Z,98042.94
2022-08-05T17:49:06.670Z,98046.78
2022-08-05T17:51:40.119Z,98050.22
2022-08-05T17:54:10.894Z,98048.47
2022-08-05T17:56:40.980Z,98053.84
2022-08-05T17:59:14.817Z,98066.44
2022-08-05T18:01:53.815Z,98059.22
2022-08-05T18:04:27.828Z,98069.78
2022-08-05T18:07:01.128Z,98079.53
2022-08-05T18:09:58.839Z,98080.06
2022-08-05T18:12:24.446Z,98090.59
2022-08-05T18:14:55.113Z,98091.63
2022-08-05T18:18:01.414Z,98100.09
2022-08-05T18:20:17.857Z,98092.84
2022-08-05T18:22:54.887Z,98098.22
2022-08-05T18:25:33.052Z,98102.97
2022-08-05T18:28:05.023Z,98116.38
2022-08-05T18:30:35.905Z,98122.66
2022-08-05T18:33:13.451Z,98127.88
2022-08-05T18:36:00.043Z,98131.84
2022-08-05T18:38:36.590Z,98137.34
2022-08-05T18:41:53.375Z,98157.56
2022-08-05T18:44:06.269Z,98160.91
2022-08-05T18:46:37.866Z,98169.09
2022-08-05T18:49:30.774Z,98175.44
2022-08-05T18:52:33.180Z,98177.03
2022-08-05T18:55:06.546Z,98185.59
2022-08-05T18:57:50.333Z,98186.13
2022-08-05T19:00:28.539Z,98202.81
2022-08-05T19:03:04.233Z,98200.28
2022-08-05T19:06:12.135Z,98193.63
2022-08-05T19:08:30.668Z,98203.63
2022-08-05T19:11:04.441Z,98206.31
2022-08-05T19:13:36.854Z,98208.97
2022-08-05T19:16:22.071Z,98209.56
2022-08-05T19:18:58.347Z,98209.88
2022-08-05T19:21:34.839Z,98227.06
2022-08-05T19:24:13.059Z,98217.97
2022-08-05T19:26:54.529Z,98226.88
2022-08-05T19:29:36.087Z,98224.28
2022-08-05T19:32:11.240Z,98237.34
2022-08-05T19:34:42.048Z,98224.63
2022-08-05T19:37:47.203Z,98236.88
2022-08-05T19:40:19.753Z,98249.88
2022-08-05T19:43:05.600Z,98248.34
2022-08-05T19:45:37.501Z,98245.72
2022-08-05T19:48:14.438Z,98257.50
2022-08-05T19:50:45.149Z,98266.59
2022-08-05T19:53:17.848Z,98269.97
2022-08-05T19:56:14.803Z,98265.03
2022-08-05T19:58:58.757Z,98268.75
2022-08-05T20:01:48.894Z,98270.31
2022-08-05T20:04:18.981Z,98270.31
2022-08-05T20:06:50.350Z,98285.94
2022-08-05T20:09:23.252Z,98291.13
2022-08-05T20:11:55.657Z,98285.94
2022-08-05T20:14:27.072Z,98286.72
2022-08-05T20:16:59.310Z,98298.44
2022-08-05T20:19:36.129Z,98299.44
2022-08-05T20:22:06.560Z,98307.00
2022-08-05T20:24:43.301Z,98299.50
2022-08-05T20:27:13.775Z,98300.03
2022-08-05T20:29:57.939Z,98308.63
2022-08-05T20:32:29.605Z,98313.78
2022-08-05T20:34:59.953Z,98316.13
2022-08-05T20:38:06.431Z,98316.59
2022-08-05T20:40:22.746Z,98328.75
2022-08-05T20:42:53.671Z,98322.25
2022-08-05T20:45:56.478Z,98324.56
2022-08-05T20:48:20.277Z,98326.63
2022-08-05T20:50:50.621Z,98339.75
2022-08-05T20:53:36.874Z,98342.75
2022-08-05T20:56:11.389Z,98357.81
2022-08-05T20:58:43.516Z,98369.69
2022-08-05T21:01:14.041Z,98373.78
2022-08-05T21:03:47.888Z,98375.88
2022-08-05T21:06:27.753Z,98381.06
2022-08-05T21:08:58.732Z,98389.81
2022-08-05T21:12:09.534Z,98385.16
2022-08-05T21:14:23.404Z,98391.84
2022-08-05T21:16:56.766Z,98411.59
2022-08-05T21:19:27.278Z,98419.97
2022-08-05T21:21:58.453Z,98420.94
2022-08-05T21:24:29.637Z,98431.28
2022-08-05T21:27:02.677Z,98442.78
2022-08-05T21:29:33.238Z,98445.31
2022-08-05T21:32:11.108Z,98436.44
2022-08-05T21:35:06.794Z,98438.31
2022-08-05T21:37:41.382Z,98444.19
2022-08-05T21:40:14.400Z,98434.19
2022-08-05T21:42:51.931Z,98437.97
2022-08-05T21:45:24.695Z,98434.13
2022-08-05T21:47:58.109Z,98422.03
2022-08-05T21:50:29.009Z,98423.44
2022-08-05T21:53:04.437Z,98426.84
2022-08-05T21:56:00.927Z,98444.28
2022-08-05T21:58:32.227Z,98448.03
2022-08-05T22:01:04.673Z,98447.78
2022-08-05T22:03:52.463Z,98461.31
2022-08-05T22:06:34.834Z,98462.88
2022-08-05T22:09:13.874Z,98457.06
2022-08-05T22:11:46.728Z,98464.63
2022-08-05T22:14:37.232Z,98467.78
2022-08-05T22:17:08.970Z,98470.13
2022-08-05T22:20:00.696Z,98477.69
2022-08-05T22:22:29.919Z,98472.72
2022-08-05T22:25:21.752Z,98476.41
2022-08-05T22:28:09.028Z,98485.53
2022-08-05T22:30:57.213Z,98497.97
2022-08-05T22:33:55.678Z,98507.00
2022-08-05T22:36:23.790Z,98503.59
2022-08-05T22:38:55.288Z,98498.97
2022-08-05T22:41:25.901Z,98512.16
2022-08-05T22:43:59.308Z,98522.03
2022-08-05T22:46:31.936Z,98528.47
2022-08-05T22:49:02.726Z,98536.19
2022-08-05T22:52:04.330Z,98534.53
2022-08-05T22:54:23.560Z,98523.47
2022-08-05T22:56:53.610Z,98525.00
2022-08-05T22:59:46.443Z,98531.16
2022-08-05T23:02:16.987Z,98532.75
2022-08-05T23:04:52.057Z,98544.81
2022-08-05T23:07:22.858Z,98546.53
2022-08-05T23:10:01.599Z,98547.09
2022-08-05T23:12:33.430Z,98543.66
2022-08-05T23:15:09.563Z,98547.88
2022-08-05T23:18:00.903Z,98551.72
2022-08-05T23:20:37.410Z,98553.28
2022-08-05T23:23:09.047Z,98550.56
2022-08-05T23:25:55.015Z,98559.47
2022-08-05T23:28:27.790Z,98557.78
2022-08-05T23:31:16.136Z,98552.00
2022-08-05T23:34:05.582Z,98562.78
2022-08-05T23:36:40.197Z,98560.41
2022-08-05T23:39:32.090Z,98572.47
2022-08-05T23:42:13.996Z,98574.19
2022-08-05T23:44:44.490Z,98572.31
2022-08-05T23:47:16.322Z,98572.25
2022-08-05T23:49:51.976Z,98573.53
2022-08-05T23:52:36.216Z,98574.13
2022-08-05T23:55:21.588Z,98578.63
2022-08-05T23:57:52.839Z,98577.03
